createdAt,value
2017-08-01T00:02:27.840Z,5.00
2017-08-01T00:04:56.098Z,5.63
2017-08-01T00:07:24.503Z,5.33
2017-08-01T00:09:52.761Z,5.20
2017-08-01T00:12:21.022Z,5.87
2017-08-01T00:14:50.047Z,5.10
2017-08-01T00:17:18.305Z,5.20
2017-08-01T00:19:46.551Z,5.70
2017-08-01T00:22:14.794Z,6.93
2017-08-01T00:24:43.045Z,5.57
2017-08-01T00:27:11.315Z,5.07
2017-08-01T00:29:39.565Z,6.60
2017-08-01T00:32:09.513Z,6.27
2017-08-01T00:34:38.538Z,6.60
2017-08-01T00:37:06.781Z,7.00
2017-08-01T00:39:35.890Z,6.90
2017-08-01T00:42:04.974Z,7.27
2017-08-01T00:44:33.227Z,6.83
2017-08-01T00:47:01.500Z,7.93
2017-08-01T00:49:29.777Z,7.97
2017-08-01T00:51:58.796Z,7.90
2017-08-01T00:54:27.080Z,7.87
2017-08-01T00:56:55.307Z,7.93
2017-08-01T00:59:23.568Z,8.20
2017-08-01T01:01:51.823Z,7.80
2017-08-01T01:04:20.086Z,7.70
2017-08-01T01:06:48.331Z,9.83
2017-08-01T01:09:16.634Z,7.77
2017-08-01T01:11:44.904Z,7.90
2017-08-01T01:14:13.158Z,9.23
2017-08-01T01:16:42.182Z,9.10
2017-08-01T01:19:10.994Z,8.33
2017-08-01T01:21:39.222Z,9.17
2017-08-01T01:24:07.483Z,9.00
2017-08-01T01:26:36.523Z,8.40
2017-08-01T01:29:07.732Z,8.57
2017-08-01T01:31:35.950Z,8.27
2017-08-01T01:34:04.205Z,9.57
2017-08-01T01:36:32.507Z,9.50
2017-08-01T01:39:00.763Z,8.83
2017-08-01T01:41:29.033Z,9.67
2017-08-01T01:43:57.299Z,10.90
2017-08-01T01:46:25.570Z,10.33
2017-08-01T01:48:53.859Z,10.97
2017-08-01T01:51:22.271Z,9.63
2017-08-01T01:53:50.495Z,9.33
2017-08-01T01:56:19.518Z,10.23
2017-08-01T01:58:47.789Z,10.73
2017-08-01T02:01:16.068Z,9.40
2017-08-01T02:03:44.360Z,9.30
2017-08-01T02:06:12.726Z,9.90
2017-08-01T02:08:41.859Z,10.87
2017-08-01T02:11:10.089Z,9.83
2017-08-01T02:13:38.341Z,9.37
2017-08-01T02:16:06.786Z,8.20
2017-08-01T02:18:35.097Z,9.70
2017-08-01T02:21:03.345Z,9.20
2017-08-01T02:23:31.601Z,11.57
2017-08-01T02:25:59.909Z,11.00
2017-08-01T02:28:28.189Z,10.63
2017-08-01T02:30:56.448Z,11.17
2017-08-01T02:33:24.744Z,11.17
2017-08-01T02:35:53.022Z,10.47
2017-08-01T02:38:21.281Z,8.47
2017-08-01T02:40:49.558Z,10.33
2017-08-01T02:43:17.816Z,10.57
2017-08-01T02:45:46.085Z,10.17
2017-08-01T02:48:14.319Z,11.03
2017-08-01T02:50:42.573Z,9.43
2017-08-01T02:53:10.889Z,10.57
2017-08-01T02:55:39.266Z,8.90
2017-08-01T02:58:07.519Z,10.10
2017-08-01T03:00:35.762Z,11.30
2017-08-01T03:03:04.058Z,10.07
2017-08-01T03:05:32.320Z,11.70
2017-08-01T03:08:00.583Z,9.17
2017-08-01T03:10:28.818Z,8.93
2017-08-01T03:12:57.851Z,10.13
2017-08-01T03:15:26.129Z,10.50
2017-08-01T03:17:55.142Z,10.57
2017-08-01T03:20:23.425Z,9.60
2017-08-01T03:22:51.634Z,9.90
2017-08-01T03:25:19.906Z,11.60
2017-08-01T03:27:48.155Z,11.97
2017-08-01T03:30:16.442Z,11.57
2017-08-01T03:32:45.160Z,11.60
2017-08-01T03:35:14.226Z,10.83
2017-08-01T03:37:43.371Z,11.93
2017-08-01T03:40:12.482Z,10.90
2017-08-01T03:42:40.850Z,11.67
2017-08-01T03:45:09.852Z,12.20
2017-08-01T03:47:38.099Z,11.33
2017-08-01T03:50:06.349Z,10.70
2017-08-01T03:52:34.579Z,11.30
2017-08-01T03:55:02.846Z,11.93
2017-08-01T03:57:31.088Z,12.17
2017-08-01T03:59:59.357Z,12.03
2017-08-01T04:02:27.629Z,11.10
2017-08-01T04:04:55.944Z,10.30
2017-08-01T04:07:24.222Z,12.33
2017-08-01T04:09:52.442Z,10.40
2017-08-01T04:12:20.681Z,10.10
2017-08-01T04:14:49.716Z,10.77
2017-08-01T04:17:17.938Z,11.90
2017-08-01T04:19:56.170Z,10.83
2017-08-01T04:22:25.164Z,12.37
2017-08-01T04:24:54.182Z,12.10
2017-08-01T04:27:22.429Z,12.30
2017-08-01T04:29:51.446Z,11.80
2017-08-01T04:32:19.736Z,12.07
2017-08-01T04:34:48.005Z,10.13
2017-08-01T04:37:16.993Z,11.40
2017-08-01T04:39:45.242Z,10.67
2017-08-01T04:42:14.555Z,13.07
2017-08-01T04:44:55.259Z,13.23
2017-08-01T04:47:23.553Z,12.07
2017-08-01T04:49:51.826Z,11.93
2017-08-01T04:52:20.102Z,10.83
2017-08-01T04:54:48.347Z,11.20
2017-08-01T04:57:16.613Z,10.40
2017-08-01T04:59:45.648Z,10.20
2017-08-01T05:02:13.942Z,10.43
2017-08-01T05:04:42.211Z,10.63
2017-08-01T05:07:10.458Z,9.70
2017-08-01T05:09:38.713Z,9.10
2017-08-01T05:12:07.139Z,8.53
2017-08-01T05:14:35.466Z,8.70
2017-08-01T05:17:04.510Z,7.53
2017-08-01T05:19:32.786Z,7.10
2017-08-01T05:22:01.065Z,9.10
2017-08-01T05:24:29.362Z,9.10
2017-08-01T05:26:57.596Z,8.67
2017-08-01T05:29:25.854Z,8.00
2017-08-01T05:31:54.112Z,8.17
2017-08-01T05:34:22.364Z,9.47
2017-08-01T05:36:50.593Z,9.57
2017-08-01T05:39:19.596Z,10.13
2017-08-01T05:41:47.862Z,8.00
2017-08-01T05:44:16.866Z,7.73
2017-08-01T05:46:45.168Z,6.93
2017-08-01T05:49:13.405Z,8.10
2017-08-01T05:51:41.656Z,6.83
2017-08-01T05:54:10.705Z,6.93
2017-08-01T05:56:38.963Z,7.17
2017-08-01T05:59:07.994Z,8.53
2017-08-01T06:01:36.242Z,7.83
2017-08-01T06:04:04.474Z,8.03
2017-08-01T06:06:32.741Z,8.67
2017-08-01T06:09:00.990Z,8.40
2017-08-01T06:11:29.247Z,9.43
2017-08-01T06:13:57.486Z,6.90
2017-08-01T06:16:25.754Z,7.03
2017-08-01T06:18:54.008Z,6.90
2017-08-01T06:21:22.248Z,8.13
2017-08-01T06:23:50.550Z,8.63
2017-08-01T06:26:18.798Z,7.97
2017-08-01T06:28:47.852Z,7.20
2017-08-01T06:31:16.129Z,6.77
2017-08-01T06:33:44.402Z,6.33
2017-08-01T06:36:12.669Z,6.27
2017-08-01T06:38:40.928Z,6.83
2017-08-01T06:41:09.196Z,7.17
2017-08-01T06:43:37.437Z,5.90
2017-08-01T06:46:05.716Z,5.50
2017-08-01T06:48:33.993Z,6.30
2017-08-01T06:51:03.351Z,5.87
2017-08-01T06:53:33.153Z,4.80
2017-08-01T06:56:01.437Z,4.37
2017-08-01T06:58:29.764Z,3.57
2017-08-01T07:00:58.013Z,4.60
2017-08-01T07:03:26.296Z,4.57
2017-08-01T07:05:54.755Z,3.70
2017-08-01T07:08:23.024Z,4.27
2017-08-01T07:10:51.249Z,5.57
2017-08-01T07:13:19.510Z,5.17
2017-08-01T07:15:47.760Z,4.00
2017-08-01T07:18:16.005Z,3.27
2017-08-01T07:20:44.388Z,3.37
2017-08-01T07:23:12.646Z,3.40
2017-08-01T07:25:41.646Z,3.10
2017-08-01T07:28:10.661Z,3.43
2017-08-01T07:30:38.973Z,3.73
2017-08-01T07:33:07.230Z,3.57
2017-08-01T07:35:35.445Z,4.10
2017-08-01T07:38:04.505Z,3.20
2017-08-01T07:40:32.747Z,3.90
2017-08-01T07:43:01.750Z,3.77
2017-08-01T07:45:30.228Z,3.70
2017-08-01T07:47:59.233Z,3.70
2017-08-01T07:50:27.618Z,3.50
2017-08-01T07:52:56.705Z,3.73
2017-08-01T07:55:24.994Z,4.20
2017-08-01T07:57:53.255Z,4.70
2017-08-01T08:00:21.515Z,3.93
2017-08-01T08:02:49.800Z,4.00
2017-08-01T08:05:18.835Z,4.70
2017-08-01T08:07:47.105Z,11.97
2017-08-01T08:10:15.371Z,4.63
2017-08-01T08:12:43.643Z,3.50
2017-08-01T08:15:11.911Z,3.80
2017-08-01T08:17:40.921Z,4.30
2017-08-01T08:20:09.177Z,5.40
2017-08-01T08:22:38.211Z,4.60
2017-08-01T08:25:06.436Z,5.10
2017-08-01T08:27:35.483Z,4.30
2017-08-01T08:30:04.710Z,5.20
2017-08-01T08:32:35.329Z,5.47
2017-08-01T08:35:03.594Z,4.40
2017-08-01T08:37:31.874Z,4.73
2017-08-01T08:40:00.096Z,4.60
2017-08-01T08:42:28.323Z,4.37
2017-08-01T08:44:56.630Z,4.90
2017-08-01T08:47:24.905Z,5.57
2017-08-01T08:49:53.365Z,4.60
2017-08-01T08:52:21.696Z,5.00
2017-08-01T08:54:50.750Z,4.07
2017-08-01T08:57:18.982Z,4.57
2017-08-01T08:59:48.021Z,5.00
2017-08-01T09:02:16.378Z,4.07
2017-08-01T09:04:44.641Z,5.30
2017-08-01T09:07:13.646Z,4.60
2017-08-01T09:09:42.030Z,6.20
2017-08-01T09:12:10.245Z,5.97
2017-08-01T09:14:38.546Z,7.77
2017-08-01T09:17:07.575Z,8.20
2017-08-01T09:19:35.853Z,7.53
2017-08-01T09:22:04.085Z,7.27
2017-08-01T09:24:32.422Z,7.13
2017-08-01T09:27:00.668Z,6.70
2017-08-01T09:29:28.923Z,8.70
2017-08-01T09:31:58.121Z,7.20
2017-08-01T09:34:26.375Z,5.70
2017-08-01T09:36:54.618Z,6.33
2017-08-01T09:39:22.889Z,6.97
2017-08-01T09:41:51.178Z,5.60
2017-08-01T09:44:19.443Z,7.27
2017-08-01T09:46:47.693Z,6.97
2017-08-01T09:49:16.717Z,6.23
2017-08-01T09:51:44.966Z,8.77
2017-08-01T09:54:13.235Z,7.50
2017-08-01T09:56:42.278Z,6.70
2017-08-01T09:59:10.529Z,6.43
2017-08-01T10:01:38.782Z,6.77
2017-08-01T10:04:07.065Z,5.90
2017-08-01T10:06:35.321Z,5.40
2017-08-01T10:09:03.586Z,4.80
2017-08-01T10:11:31.866Z,6.20
2017-08-01T10:14:00.124Z,4.77
2017-08-01T10:16:28.354Z,4.50
2017-08-01T10:18:59.222Z,4.57
2017-08-01T10:21:27.474Z,5.23
2017-08-01T10:23:56.520Z,5.80
2017-08-01T10:26:24.768Z,4.57
2017-08-01T10:28:53.034Z,4.23
2017-08-01T10:31:21.286Z,4.73
2017-08-01T10:33:50.320Z,3.30
2017-08-01T10:36:18.590Z,3.43
2017-08-01T10:38:46.913Z,3.13
2017-08-01T10:41:15.192Z,3.13
2017-08-01T10:43:43.462Z,3.07
2017-08-01T10:46:11.719Z,3.13
2017-08-01T10:48:39.962Z,4.20
2017-08-01T10:51:08.958Z,4.00
2017-08-01T10:53:37.223Z,3.90
2017-08-01T10:56:06.243Z,4.73
2017-08-01T10:58:34.491Z,4.33
2017-08-01T11:01:02.758Z,3.40
2017-08-01T11:03:31.807Z,3.50
2017-08-01T11:06:00.050Z,3.77
2017-08-01T11:08:28.302Z,3.00
2017-08-01T11:10:56.563Z,3.10
2017-08-01T11:13:25.604Z,3.60
2017-08-01T11:15:55.574Z,3.10
2017-08-01T11:18:24.426Z,3.80
2017-08-01T11:20:52.738Z,3.37
2017-08-01T11:23:21.011Z,2.97
2017-08-01T11:25:50.045Z,3.57
2017-08-01T11:28:19.099Z,3.20
2017-08-01T11:30:48.009Z,3.13
2017-08-01T11:33:16.283Z,3.10
2017-08-01T11:35:44.559Z,3.90
2017-08-01T11:38:12.805Z,3.10
2017-08-01T11:40:41.097Z,3.60
2017-08-01T11:43:09.373Z,3.30
2017-08-01T11:45:37.644Z,3.57
2017-08-01T11:48:06.015Z,3.17
2017-08-01T11:50:34.289Z,2.80
2017-08-01T11:53:02.693Z,3.50
2017-08-01T11:55:30.949Z,3.50
2017-08-01T11:57:59.320Z,3.10
2017-08-01T12:00:27.621Z,3.40
2017-08-01T12:02:55.864Z,3.10
2017-08-01T12:05:24.094Z,5.30
2017-08-01T12:07:52.385Z,4.27
2017-08-01T12:10:21.445Z,3.00
2017-08-01T12:12:49.683Z,3.40
2017-08-01T12:15:17.959Z,3.80
2017-08-01T12:17:46.240Z,2.70
2017-08-01T12:20:14.552Z,3.00
2017-08-01T12:22:42.915Z,3.13
2017-08-01T12:25:11.163Z,3.30
2017-08-01T12:27:40.294Z,4.00
2017-08-01T12:30:08.546Z,3.43
2017-08-01T12:32:37.549Z,3.77
2017-08-01T12:35:05.805Z,3.77
2017-08-01T12:37:34.886Z,3.50
2017-08-01T12:40:03.119Z,3.93
2017-08-01T12:42:31.363Z,3.40
2017-08-01T12:44:59.661Z,2.97
2017-08-01T12:47:27.906Z,4.10
2017-08-01T12:49:56.951Z,3.07
2017-08-01T12:52:25.206Z,3.80
2017-08-01T12:54:53.491Z,2.70
2017-08-01T12:57:21.740Z,2.57
2017-08-01T12:59:50.085Z,3.43
2017-08-01T13:02:18.322Z,4.23
2017-08-01T13:04:46.570Z,3.83
2017-08-01T13:07:14.829Z,3.80
2017-08-01T13:09:43.108Z,3.40
2017-08-01T13:12:11.387Z,2.87
2017-08-01T13:14:40.427Z,3.00
2017-08-01T13:17:08.801Z,2.90
2017-08-01T13:19:37.050Z,5.07
2017-08-01T13:22:06.074Z,3.27
2017-08-01T13:24:34.306Z,3.40
2017-08-01T13:27:03.346Z,4.07
2017-08-01T13:29:31.627Z,3.40
2017-08-01T13:31:59.856Z,3.90
2017-08-01T13:34:28.993Z,4.30
2017-08-01T13:36:57.971Z,8.13
2017-08-01T13:39:26.397Z,2.50
2017-08-01T13:41:54.961Z,3.63
2017-08-01T13:44:23.274Z,3.33
2017-08-01T13:46:51.745Z,3.80
2017-08-01T13:49:20.005Z,3.77
2017-08-01T13:51:48.246Z,3.80
2017-08-01T13:54:16.532Z,4.70
2017-08-01T13:56:46.294Z,4.20
2017-08-01T13:59:14.567Z,3.60
2017-08-01T14:01:42.853Z,3.87
2017-08-01T14:04:12.316Z,4.40
2017-08-01T14:06:40.524Z,3.80
2017-08-01T14:09:08.816Z,3.43
2017-08-01T14:11:37.087Z,3.47
2017-08-01T14:14:05.334Z,3.70
2017-08-01T14:16:33.593Z,3.70
2017-08-01T14:19:01.846Z,4.30
2017-08-01T14:21:30.160Z,4.43
2017-08-01T14:23:58.471Z,3.27
2017-08-01T14:26:26.720Z,3.70
2017-08-01T14:28:54.958Z,4.50
2017-08-01T14:31:23.247Z,3.90
2017-08-01T14:33:52.255Z,3.80
2017-08-01T14:36:20.654Z,4.80
2017-08-01T14:38:49.922Z,4.70
2017-08-01T14:41:18.228Z,3.73
2017-08-01T14:43:46.503Z,4.13
2017-08-01T14:46:14.769Z,3.50
2017-08-01T14:48:43.027Z,4.00
2017-08-01T14:51:11.326Z,4.03
2017-08-01T14:53:39.591Z,4.37
2017-08-01T14:56:07.866Z,4.43
2017-08-01T14:58:36.132Z,4.70
2017-08-01T15:01:04.543Z,4.40
2017-08-01T15:03:33.156Z,5.27
2017-08-01T15:06:01.810Z,4.10
2017-08-01T15:08:30.057Z,3.53
2017-08-01T15:10:58.319Z,4.27
2017-08-01T15:13:26.580Z,5.00
2017-08-01T15:15:54.861Z,4.03
2017-08-01T15:18:23.114Z,4.90
2017-08-01T15:20:51.378Z,7.27
2017-08-01T15:23:19.629Z,4.37
2017-08-01T15:25:47.879Z,4.67
2017-08-01T15:28:17.334Z,4.50
2017-08-01T15:30:45.588Z,13.77
2017-08-01T15:33:13.851Z,4.63
2017-08-01T15:35:42.875Z,4.07
2017-08-01T15:38:11.146Z,4.10
2017-08-01T15:40:39.393Z,3.60
2017-08-01T15:43:08.412Z,4.67
2017-08-01T15:45:36.683Z,4.77
2017-08-01T15:48:04.946Z,4.40
2017-08-01T15:50:34.008Z,4.73
2017-08-01T15:53:02.836Z,4.47
2017-08-01T15:55:31.218Z,3.80
2017-08-01T15:58:00.844Z,4.07
2017-08-01T16:00:29.094Z,3.90
2017-08-01T16:02:57.429Z,3.93
2017-08-01T16:05:25.735Z,3.93
2017-08-01T16:07:54.020Z,4.57
2017-08-01T16:10:23.027Z,4.10
2017-08-01T16:12:51.351Z,4.63
2017-08-01T16:15:19.617Z,3.40
2017-08-01T16:17:47.862Z,3.23
2017-08-01T16:20:16.887Z,3.50
2017-08-01T16:22:45.175Z,3.27
2017-08-01T16:25:13.425Z,3.73
2017-08-01T16:27:41.668Z,5.80
2017-08-01T16:30:09.926Z,5.77
2017-08-01T16:32:38.189Z,7.90
2017-08-01T16:35:06.456Z,7.63
2017-08-01T16:37:35.278Z,6.93
2017-08-01T16:40:03.546Z,8.63
2017-08-01T16:42:31.814Z,9.00
2017-08-01T16:45:02.039Z,8.20
2017-08-01T16:47:30.279Z,7.87
2017-08-01T16:49:58.649Z,6.90
2017-08-01T16:52:26.935Z,8.90
2017-08-01T16:54:56.757Z,8.03
2017-08-01T16:57:25.033Z,6.93
2017-08-01T16:59:53.906Z,8.77
2017-08-01T17:02:22.176Z,9.03
2017-08-01T17:04:51.190Z,8.03
2017-08-01T17:07:19.487Z,9.00
2017-08-01T17:09:47.694Z,7.73
2017-08-01T17:12:15.988Z,8.50
2017-08-01T17:14:44.228Z,8.30
2017-08-01T17:17:12.500Z,9.30
2017-08-01T17:19:40.772Z,7.93
2017-08-01T17:22:09.022Z,8.80
2017-08-01T17:24:37.271Z,9.47
2017-08-01T17:27:06.455Z,9.53
2017-08-01T17:29:34.730Z,8.70
2017-08-01T17:32:03.027Z,8.90
2017-08-01T17:34:31.361Z,8.57
2017-08-01T17:36:59.687Z,8.67
2017-08-01T17:39:28.741Z,9.07
2017-08-01T17:41:57.034Z,8.83
2017-08-01T17:44:25.309Z,9.73
2017-08-01T17:46:53.637Z,9.70
2017-08-01T17:49:21.966Z,8.40
2017-08-01T17:51:50.247Z,9.00
2017-08-01T17:54:18.488Z,9.30
2017-08-01T17:56:46.754Z,9.57
2017-08-01T17:59:15.057Z,7.80
2017-08-01T18:01:43.426Z,8.50
2017-08-01T18:04:11.748Z,9.37
2017-08-01T18:06:40.827Z,9.20
2017-08-01T18:09:09.484Z,8.30
2017-08-01T18:11:37.887Z,8.10
2017-08-01T18:14:06.152Z,9.73
2017-08-01T18:16:34.517Z,8.73
2017-08-01T18:19:02.876Z,8.30
2017-08-01T18:21:31.380Z,9.67
2017-08-01T18:23:59.639Z,9.07
2017-08-01T18:26:28.147Z,8.60
2017-08-01T18:28:56.516Z,9.77
2017-08-01T18:31:26.080Z,8.03
2017-08-01T18:33:54.509Z,9.57
2017-08-01T18:36:23.703Z,11.47
2017-08-01T18:38:52.562Z,9.67
2017-08-01T18:41:23.156Z,9.40
2017-08-01T18:43:52.546Z,7.93
2017-08-01T18:46:24.146Z,9.17
2017-08-01T18:48:53.336Z,9.63
2017-08-01T18:51:24.527Z,10.27
2017-08-01T18:53:54.153Z,9.50
2017-08-01T18:56:23.850Z,11.10
2017-08-01T18:58:53.158Z,10.97
2017-08-01T19:01:22.070Z,8.40
2017-08-01T19:03:50.947Z,8.83
2017-08-01T19:06:19.831Z,10.63
2017-08-01T19:08:48.623Z,9.50
2017-08-01T19:11:18.941Z,8.80
2017-08-01T19:13:47.628Z,10.43
2017-08-01T19:16:16.325Z,9.53
2017-08-01T19:18:45.118Z,10.37
2017-08-01T19:21:13.691Z,10.23
2017-08-01T19:23:42.478Z,11.17
2017-08-01T19:26:11.163Z,10.10
2017-08-01T19:28:39.950Z,11.07
2017-08-01T19:31:08.644Z,9.97
2017-08-01T19:33:37.531Z,10.47
2017-08-01T19:36:06.329Z,10.40
2017-08-01T19:38:35.423Z,8.73
2017-08-01T19:41:05.857Z,10.00
2017-08-01T19:43:35.556Z,9.93
2017-08-01T19:46:04.755Z,11.90
2017-08-01T19:48:33.645Z,10.63
2017-08-01T19:51:04.174Z,10.07
2017-08-01T19:53:33.682Z,12.67
2017-08-01T19:56:02.471Z,11.47
2017-08-01T19:58:31.263Z,9.77
2017-08-01T20:01:00.048Z,11.20
2017-08-01T20:03:29.455Z,11.53
2017-08-01T20:05:59.060Z,12.90
2017-08-01T20:08:27.850Z,11.00
2017-08-01T20:10:57.374Z,10.93
2017-08-01T20:13:36.777Z,11.87
2017-08-01T20:16:06.201Z,12.10
2017-08-01T20:18:35.501Z,16.00
2017-08-01T20:21:06.442Z,17.83
2017-08-01T20:23:35.775Z,19.60
2017-08-01T20:26:04.335Z,20.17
2017-08-01T20:28:33.748Z,20.80
2017-08-01T20:31:02.096Z,21.23
2017-08-01T20:33:30.561Z,22.30
2017-08-01T20:35:58.957Z,23.83
2017-08-01T20:38:27.995Z,27.80
2017-08-01T20:40:56.318Z,25.37
2017-08-01T20:43:24.614Z,27.60
2017-08-01T20:45:52.909Z,28.83
2017-08-01T20:48:21.261Z,33.40
2017-08-01T20:50:51.404Z,32.00
2017-08-01T20:53:19.813Z,34.60
2017-08-01T20:55:48.119Z,31.70
2017-08-01T20:58:16.527Z,30.03
2017-08-01T21:00:45.069Z,31.03
2017-08-01T21:03:13.557Z,30.80
2017-08-01T21:05:43.014Z,29.97
2017-08-01T21:08:12.332Z,28.00
2017-08-01T21:10:41.454Z,28.30
2017-08-01T21:13:09.778Z,32.70
2017-08-01T21:15:39.011Z,31.10
2017-08-01T21:18:07.995Z,32.90
2017-08-01T21:20:37.370Z,33.97
2017-08-01T21:23:07.616Z,34.23
2017-08-01T21:25:36.384Z,33.83
2017-08-01T21:28:04.928Z,31.67
2017-08-01T21:30:33.931Z,33.60
2017-08-01T21:33:03.998Z,30.50
2017-08-01T21:35:32.846Z,30.43
2017-08-01T21:38:01.820Z,34.20
2017-08-01T21:40:30.733Z,34.67
2017-08-01T21:43:00.108Z,34.87
2017-08-01T21:45:28.812Z,30.87
2017-08-01T21:47:58.764Z,34.00
2017-08-01T21:50:28.180Z,34.27
2017-08-01T21:52:56.571Z,35.03
2017-08-01T21:55:25.570Z,38.50
2017-08-01T21:57:54.786Z,37.80
2017-08-01T22:00:23.546Z,40.00
2017-08-01T22:02:51.848Z,41.27
2017-08-01T22:05:20.941Z,40.93
2017-08-01T22:07:49.703Z,38.00
2017-08-01T22:10:18.735Z,36.90
2017-08-01T22:12:47.181Z,36.70
2017-08-01T22:15:17.037Z,43.60
2017-08-01T22:17:45.307Z,44.17
2017-08-01T22:20:13.575Z,46.07
2017-08-01T22:22:41.863Z,43.93
2017-08-01T22:25:10.148Z,41.40
2017-08-01T22:27:38.415Z,41.03
2017-08-01T22:30:07.346Z,41.00
2017-08-01T22:32:35.666Z,40.37
2017-08-01T22:35:03.929Z,38.90
2017-08-01T22:37:32.176Z,39.20
2017-08-01T22:40:00.432Z,40.90
2017-08-01T22:42:28.724Z,44.17
2017-08-01T22:44:57.759Z,39.80
2017-08-01T22:47:26.640Z,36.50
2017-08-01T22:49:54.987Z,39.10
2017-08-01T22:52:23.247Z,39.57
2017-08-01T22:54:51.490Z,36.83
2017-08-01T22:57:19.748Z,37.43
2017-08-01T22:59:48.021Z,36.83
2017-08-01T23:02:16.754Z,35.27
2017-08-01T23:04:45.854Z,36.43
2017-08-01T23:07:14.142Z,38.67
2017-08-01T23:09:42.470Z,39.90
2017-08-01T23:12:10.725Z,41.30
2017-08-01T23:14:39.010Z,41.83
2017-08-01T23:17:07.327Z,40.40
2017-08-01T23:19:35.606Z,39.90
2017-08-01T23:22:03.886Z,38.77
2017-08-01T23:24:33.322Z,39.17
2017-08-01T23:27:01.765Z,39.40
2017-08-01T23:29:30.033Z,37.30
2017-08-01T23:31:58.346Z,37.97
2017-08-01T23:34:26.602Z,39.80
2017-08-01T23:36:54.915Z,41.40
2017-08-01T23:39:25.421Z,42.47
2017-08-01T23:41:55.744Z,42.33
2017-08-01T23:44:24.691Z,45.07
2017-08-01T23:46:52.969Z,43.37
2017-08-01T23:49:21.604Z,42.73
2017-08-01T23:51:50.765Z,43.70
2017-08-01T23:54:19.450Z,45.30
2017-08-01T23:56:47.663Z,45.03
2017-08-01T23:59:16.687Z,41.33
